sensor_id;sensor_type;location;lat;lon;timestamp;P1;durP1;ratioP1;P2;durP2;ratioP2
38843;SDS011;24596;48.080;8.362;2022-10-01T00:00:50;6.95;;;3.40;;
38843;SDS011;24596;48.080;8.362;2022-10-01T00:03:16;7.55;;;3.50;;
38843;SDS011;24596;48.080;8.362;2022-10-01T00:05:42;6.60;;;3.00;;
38843;SDS011;24596;48.080;8.362;2022-10-01T00:08:07;7.20;;;3.40;;
38843;SDS011;24596;48.080;8.362;2022-10-01T00:10:33;7.95;;;3.05;;
38843;SDS011;24596;48.080;8.362;2022-10-01T00:12:58;7.95;;;3.22;;
38843;SDS011;24596;48.080;8.362;2022-10-01T00:15:24;9.65;;;4.35;;
38843;SDS011;24596;48.080;8.362;2022-10-01T00:17:50;9.20;;;4.95;;
38843;SDS011;24596;48.080;8.362;2022-10-01T00:20:16;11.07;;;5.13;;
38843;SDS011;24596;48.080;8.362;2022-10-01T00:22:42;10.48;;;5.00;;
38843;SDS011;24596;48.080;8.362;2022-10-01T00:25:07;11.10;;;4.70;;
38843;SDS011;24596;48.080;8.362;2022-10-01T00:27:32;7.60;;;3.90;;
38843;SDS011;24596;48.080;8.362;2022-10-01T00:29:59;8.50;;;4.53;;
38843;SDS011;24596;48.080;8.362;2022-10-01T00:32:25;10.90;;;5.05;;
38843;SDS011;24596;48.080;8.362;2022-10-01T00:34:50;8.20;;;4.15;;
38843;SDS011;24596;48.080;8.362;2022-10-01T00:37:16;9.35;;;4.53;;
38843;SDS011;24596;48.080;8.362;2022-10-01T00:39:42;8.15;;;3.90;;
38843;SDS011;24596;48.080;8.362;2022-10-01T00:42:15;8.55;;;4.05;;
38843;SDS011;24596;48.080;8.362;2022-10-01T00:44:42;11.00;;;4.80;;
38843;SDS011;24596;48.080;8.362;2022-10-01T00:49:36;13.10;;;5.90;;
38843;SDS011;24596;48.080;8.362;2022-10-01T00:52:06;20.15;;;6.47;;
38843;SDS011;24596;48.080;8.362;2022-10-01T00:54:36;11.75;;;5.78;;
38843;SDS011;24596;48.080;8.362;2022-10-01T00:57:04;12.18;;;5.28;;
38843;SDS011;24596;48.080;8.362;2022-10-01T00:59:30;18.55;;;5.22;;
38843;SDS011;24596;48.080;8.362;2022-10-01T01:01:56;14.98;;;5.40;;
38843;SDS011;24596;48.080;8.362;2022-10-01T01:04:21;8.15;;;4.32;;
38843;SDS011;24596;48.080;8.362;2022-10-01T01:06:48;8.70;;;4.20;;
38843;SDS011;24596;48.080;8.362;2022-10-01T01:09:18;14.75;;;4.13;;
38843;SDS011;24596;48.080;8.362;2022-10-01T01:14:18;10.13;;;4.55;;
38843;SDS011;24596;48.080;8.362;2022-10-01T01:16:48;8.00;;;4.25;;
38843;SDS011;24596;48.080;8.362;2022-10-01T01:21:52;7.55;;;4.03;;
38843;SDS011;24596;48.080;8.362;2022-10-01T01:29:51;11.77;;;6.00;;
38843;SDS011;24596;48.080;8.362;2022-10-01T01:32:22;9.52;;;4.72;;
38843;SDS011;24596;48.080;8.362;2022-10-01T01:34:50;13.05;;;5.13;;
38843;SDS011;24596;48.080;8.362;2022-10-01T01:37:16;8.80;;;4.55;;
38843;SDS011;24596;48.080;8.362;2022-10-01T01:39:42;10.68;;;4.63;;
38843;SDS011;24596;48.080;8.362;2022-10-01T01:42:10;9.38;;;4.40;;
38843;SDS011;24596;48.080;8.362;2022-10-01T01:44:38;7.40;;;4.25;;
38843;SDS011;24596;48.080;8.362;2022-10-01T01:47:05;9.23;;;4.45;;
38843;SDS011;24596;48.080;8.362;2022-10-01T01:49:31;8.98;;;4.28;;
38843;SDS011;24596;48.080;8.362;2022-10-01T01:54:24;10.27;;;4.22;;
38843;SDS011;24596;48.080;8.362;2022-10-01T01:56:50;9.27;;;4.43;;
38843;SDS011;24596;48.080;8.362;2022-10-01T01:59:17;7.40;;;4.13;;
38843;SDS011;24596;48.080;8.362;2022-10-01T02:01:43;7.13;;;4.03;;
38843;SDS011;24596;48.080;8.362;2022-10-01T02:09:05;11.82;;;3.97;;
38843;SDS011;24596;48.080;8.362;2022-10-01T02:11:36;11.02;;;4.15;;
38843;SDS011;24596;48.080;8.362;2022-10-01T02:16:47;5.97;;;3.08;;
38843;SDS011;24596;48.080;8.362;2022-10-01T02:21:39;4.50;;;1.63;;
38843;SDS011;24596;48.080;8.362;2022-10-01T02:24:08;3.70;;;1.77;;
38843;SDS011;24596;48.080;8.362;2022-10-01T02:26:37;3.53;;;1.77;;
38843;SDS011;24596;48.080;8.362;2022-10-01T02:29:08;2.33;;;1.20;;
38843;SDS011;24596;48.080;8.362;2022-10-01T02:31:35;6.50;;;1.67;;
38843;SDS011;24596;48.080;8.362;2022-10-01T02:34:01;6.90;;;2.08;;
38843;SDS011;24596;48.080;8.362;2022-10-01T02:36:28;4.47;;;1.67;;
38843;SDS011;24596;48.080;8.362;2022-10-01T02:38:55;3.10;;;1.40;;
38843;SDS011;24596;48.080;8.362;2022-10-01T02:41:23;3.20;;;1.60;;
38843;SDS011;24596;48.080;8.362;2022-10-01T02:49:22;4.20;;;1.67;;
38843;SDS011;24596;48.080;8.362;2022-10-01T02:57:12;2.50;;;1.20;;
38843;SDS011;24596;48.080;8.362;2022-10-01T02:59:47;2.78;;;1.25;;
38843;SDS011;24596;48.080;8.362;2022-10-01T03:02:12;4.32;;;1.27;;
38843;SDS011;24596;48.080;8.362;2022-10-01T03:04:38;5.32;;;1.40;;
38843;SDS011;24596;48.080;8.362;2022-10-01T03:07:03;3.60;;;1.40;;
38843;SDS011;24596;48.080;8.362;2022-10-01T03:09:29;3.38;;;1.70;;
38843;SDS011;24596;48.080;8.362;2022-10-01T03:11:55;3.22;;;1.50;;
38843;SDS011;24596;48.080;8.362;2022-10-01T03:14:21;3.25;;;1.50;;
38843;SDS011;24596;48.080;8.362;2022-10-01T03:16:47;5.30;;;1.50;;
38843;SDS011;24596;48.080;8.362;2022-10-01T03:19:12;3.72;;;1.60;;
38843;SDS011;24596;48.080;8.362;2022-10-01T03:21:38;3.05;;;1.50;;
38843;SDS011;24596;48.080;8.362;2022-10-01T03:24:03;2.38;;;1.30;;
38843;SDS011;24596;48.080;8.362;2022-10-01T03:26:28;2.83;;;1.27;;
38843;SDS011;24596;48.080;8.362;2022-10-01T03:28:53;4.25;;;1.73;;
38843;SDS011;24596;48.080;8.362;2022-10-01T03:31:19;2.50;;;1.27;;
38843;SDS011;24596;48.080;8.362;2022-10-01T03:33:44;4.45;;;1.40;;
38843;SDS011;24596;48.080;8.362;2022-10-01T03:36:09;3.47;;;1.60;;
38843;SDS011;24596;48.080;8.362;2022-10-01T03:38:34;3.10;;;1.42;;
38843;SDS011;24596;48.080;8.362;2022-10-01T03:41:06;3.13;;;1.40;;
38843;SDS011;24596;48.080;8.362;2022-10-01T03:43:31;5.65;;;1.55;;
38843;SDS011;24596;48.080;8.362;2022-10-01T03:45:56;3.22;;;1.40;;
38843;SDS011;24596;48.080;8.362;2022-10-01T03:48:22;4.60;;;1.50;;
38843;SDS011;24596;48.080;8.362;2022-10-01T03:50:51;5.00;;;1.40;;
38843;SDS011;24596;48.080;8.362;2022-10-01T03:53:17;3.72;;;1.50;;
38843;SDS011;24596;48.080;8.362;2022-10-01T03:55:42;3.80;;;1.55;;
38843;SDS011;24596;48.080;8.362;2022-10-01T03:58:08;4.50;;;1.40;;
38843;SDS011;24596;48.080;8.362;2022-10-01T04:00:33;3.25;;;1.27;;
38843;SDS011;24596;48.080;8.362;2022-10-01T04:02:58;4.10;;;1.63;;
38843;SDS011;24596;48.080;8.362;2022-10-01T04:05:24;3.90;;;1.50;;
38843;SDS011;24596;48.080;8.362;2022-10-01T04:07:49;4.38;;;1.60;;
38843;SDS011;24596;48.080;8.362;2022-10-01T04:10:15;5.50;;;1.75;;
38843;SDS011;24596;48.080;8.362;2022-10-01T04:12:40;4.82;;;1.60;;
38843;SDS011;24596;48.080;8.362;2022-10-01T04:15:05;7.53;;;1.50;;
38843;SDS011;24596;48.080;8.362;2022-10-01T04:17:30;3.88;;;1.30;;
38843;SDS011;24596;48.080;8.362;2022-10-01T04:19:56;3.60;;;1.58;;
38843;SDS011;24596;48.080;8.362;2022-10-01T04:22:24;3.85;;;1.40;;
38843;SDS011;24596;48.080;8.362;2022-10-01T04:24:49;2.72;;;1.35;;
38843;SDS011;24596;48.080;8.362;2022-10-01T04:27:14;2.15;;;1.00;;
38843;SDS011;24596;48.080;8.362;2022-10-01T04:29:39;5.38;;;1.35;;
38843;SDS011;24596;48.080;8.362;2022-10-01T04:32:04;5.68;;;1.60;;
38843;SDS011;24596;48.080;8.362;2022-10-01T04:34:30;3.20;;;1.50;;
38843;SDS011;24596;48.080;8.362;2022-10-01T04:37:14;4.63;;;1.48;;
38843;SDS011;24596;48.080;8.362;2022-10-01T04:39:39;3.15;;;1.30;;
38843;SDS011;24596;48.080;8.362;2022-10-01T04:42:04;4.85;;;1.50;;
38843;SDS011;24596;48.080;8.362;2022-10-01T04:44:29;5.03;;;1.30;;
38843;SDS011;24596;48.080;8.362;2022-10-01T04:46:55;4.35;;;1.50;;
38843;SDS011;24596;48.080;8.362;2022-10-01T04:49:20;2.78;;;1.38;;
38843;SDS011;24596;48.080;8.362;2022-10-01T04:51:45;5.75;;;1.17;;
38843;SDS011;24596;48.080;8.362;2022-10-01T04:54:10;4.18;;;1.30;;
38843;SDS011;24596;48.080;8.362;2022-10-01T04:56:36;6.03;;;1.65;;
38843;SDS011;24596;48.080;8.362;2022-10-01T04:59:01;6.70;;;2.50;;
38843;SDS011;24596;48.080;8.362;2022-10-01T05:01:26;4.18;;;1.23;;
38843;SDS011;24596;48.080;8.362;2022-10-01T05:03:51;4.57;;;1.35;;
38843;SDS011;24596;48.080;8.362;2022-10-01T05:06:16;2.80;;;1.38;;
38843;SDS011;24596;48.080;8.362;2022-10-01T05:08:42;3.25;;;1.40;;
38843;SDS011;24596;48.080;8.362;2022-10-01T05:11:07;3.67;;;1.02;;
38843;SDS011;24596;48.080;8.362;2022-10-01T05:13:32;3.85;;;1.40;;
38843;SDS011;24596;48.080;8.362;2022-10-01T05:15:57;3.95;;;1.35;;
38843;SDS011;24596;48.080;8.362;2022-10-01T05:18:23;4.28;;;1.27;;
38843;SDS011;24596;48.080;8.362;2022-10-01T05:20:48;3.00;;;1.33;;
38843;SDS011;24596;48.080;8.362;2022-10-01T05:23:13;3.60;;;1.05;;
38843;SDS011;24596;48.080;8.362;2022-10-01T05:25:39;5.53;;;1.40;;
38843;SDS011;24596;48.080;8.362;2022-10-01T05:28:04;3.60;;;1.38;;
38843;SDS011;24596;48.080;8.362;2022-10-01T05:30:29;3.25;;;1.50;;
38843;SDS011;24596;48.080;8.362;2022-10-01T05:32:55;4.07;;;1.40;;
38843;SDS011;24596;48.080;8.362;2022-10-01T05:35:21;4.55;;;1.42;;
38843;SDS011;24596;48.080;8.362;2022-10-01T05:37:46;4.45;;;1.52;;
38843;SDS011;24596;48.080;8.362;2022-10-01T05:40:11;6.43;;;2.25;;
38843;SDS011;24596;48.080;8.362;2022-10-01T05:42:36;4.88;;;1.65;;
38843;SDS011;24596;48.080;8.362;2022-10-01T05:45:02;2.63;;;1.25;;
38843;SDS011;24596;48.080;8.362;2022-10-01T05:47:27;3.08;;;1.30;;
38843;SDS011;24596;48.080;8.362;2022-10-01T05:49:52;3.90;;;1.40;;
38843;SDS011;24596;48.080;8.362;2022-10-01T05:52:18;4.95;;;1.67;;
38843;SDS011;24596;48.080;8.362;2022-10-01T05:54:43;3.03;;;1.40;;
38843;SDS011;24596;48.080;8.362;2022-10-01T05:57:08;4.68;;;1.50;;
38843;SDS011;24596;48.080;8.362;2022-10-01T05:59:34;6.95;;;2.28;;
38843;SDS011;24596;48.080;8.362;2022-10-01T06:01:59;4.85;;;1.90;;
38843;SDS011;24596;48.080;8.362;2022-10-01T06:04:25;3.95;;;1.65;;
38843;SDS011;24596;48.080;8.362;2022-10-01T06:06:52;3.38;;;1.20;;
38843;SDS011;24596;48.080;8.362;2022-10-01T06:09:17;1.88;;;1.00;;
38843;SDS011;24596;48.080;8.362;2022-10-01T06:11:42;4.55;;;1.30;;
38843;SDS011;24596;48.080;8.362;2022-10-01T06:14:07;3.80;;;1.45;;
38843;SDS011;24596;48.080;8.362;2022-10-01T06:16:33;2.97;;;1.10;;
38843;SDS011;24596;48.080;8.362;2022-10-01T06:18:58;3.40;;;1.33;;
38843;SDS011;24596;48.080;8.362;2022-10-01T06:21:24;3.40;;;0.95;;
38843;SDS011;24596;48.080;8.362;2022-10-01T06:23:49;2.63;;;1.15;;
38843;SDS011;24596;48.080;8.362;2022-10-01T06:26:15;3.08;;;1.10;;
38843;SDS011;24596;48.080;8.362;2022-10-01T06:28:40;2.67;;;1.48;;
38843;SDS011;24596;48.080;8.362;2022-10-01T06:31:06;4.13;;;1.10;;
38843;SDS011;24596;48.080;8.362;2022-10-01T06:33:31;2.30;;;1.02;;
38843;SDS011;24596;48.080;8.362;2022-10-01T06:35:56;6.40;;;1.33;;
38843;SDS011;24596;48.080;8.362;2022-10-01T06:38:22;4.72;;;1.30;;
38843;SDS011;24596;48.080;8.362;2022-10-01T06:40:55;4.75;;;1.17;;
38843;SDS011;24596;48.080;8.362;2022-10-01T06:43:21;3.25;;;1.10;;
38843;SDS011;24596;48.080;8.362;2022-10-01T06:45:46;3.95;;;1.40;;
38843;SDS011;24596;48.080;8.362;2022-10-01T06:48:12;4.28;;;1.55;;
38843;SDS011;24596;48.080;8.362;2022-10-01T06:50:38;2.42;;;1.25;;
38843;SDS011;24596;48.080;8.362;2022-10-01T06:53:04;6.95;;;1.65;;
38843;SDS011;24596;48.080;8.362;2022-10-01T06:55:31;3.22;;;1.00;;
38843;SDS011;24596;48.080;8.362;2022-10-01T06:57:57;3.10;;;1.05;;
38843;SDS011;24596;48.080;8.362;2022-10-01T07:00:23;3.33;;;1.30;;
38843;SDS011;24596;48.080;8.362;2022-10-01T07:02:48;3.55;;;1.38;;
38843;SDS011;24596;48.080;8.362;2022-10-01T07:05:14;2.90;;;1.30;;
38843;SDS011;24596;48.080;8.362;2022-10-01T07:07:40;4.07;;;1.63;;
38843;SDS011;24596;48.080;8.362;2022-10-01T07:10:06;3.85;;;1.50;;
38843;SDS011;24596;48.080;8.362;2022-10-01T07:12:32;2.20;;;1.35;;
38843;SDS011;24596;48.080;8.362;2022-10-01T07:14:57;4.45;;;1.63;;
38843;SDS011;24596;48.080;8.362;2022-10-01T07:17:23;3.17;;;1.33;;
38843;SDS011;24596;48.080;8.362;2022-10-01T07:19:48;4.50;;;1.38;;
38843;SDS011;24596;48.080;8.362;2022-10-01T07:22:13;3.25;;;1.23;;
38843;SDS011;24596;48.080;8.362;2022-10-01T07:24:39;5.15;;;2.20;;
38843;SDS011;24596;48.080;8.362;2022-10-01T07:27:04;3.85;;;1.63;;
38843;SDS011;24596;48.080;8.362;2022-10-01T07:29:29;5.57;;;1.90;;
38843;SDS011;24596;48.080;8.362;2022-10-01T07:31:55;2.08;;;1.08;;
38843;SDS011;24596;48.080;8.362;2022-10-01T07:34:22;2.67;;;1.10;;
38843;SDS011;24596;48.080;8.362;2022-10-01T07:36:48;2.83;;;1.08;;
38843;SDS011;24596;48.080;8.362;2022-10-01T07:39:14;2.10;;;1.05;;
38843;SDS011;24596;48.080;8.362;2022-10-01T07:41:40;2.00;;;1.08;;
38843;SDS011;24596;48.080;8.362;2022-10-01T07:44:06;5.05;;;1.00;;
38843;SDS011;24596;48.080;8.362;2022-10-01T07:46:31;2.72;;;0.90;;
38843;SDS011;24596;48.080;8.362;2022-10-01T07:48:56;2.80;;;1.20;;
38843;SDS011;24596;48.080;8.362;2022-10-01T07:51:21;5.40;;;1.15;;
38843;SDS011;24596;48.080;8.362;2022-10-01T07:53:48;4.70;;;1.17;;
38843;SDS011;24596;48.080;8.362;2022-10-01T07:56:14;2.90;;;1.20;;
38843;SDS011;24596;48.080;8.362;2022-10-01T07:58:40;2.03;;;1.00;;
38843;SDS011;24596;48.080;8.362;2022-10-01T08:01:05;4.70;;;1.38;;
38843;SDS011;24596;48.080;8.362;2022-10-01T08:03:30;3.63;;;1.00;;
38843;SDS011;24596;48.080;8.362;2022-10-01T08:05:55;3.20;;;1.20;;
38843;SDS011;24596;48.080;8.362;2022-10-01T08:08:21;3.03;;;1.20;;
38843;SDS011;24596;48.080;8.362;2022-10-01T08:10:46;100.35;;;11.85;;
38843;SDS011;24596;48.080;8.362;2022-10-01T08:13:14;14.43;;;1.92;;
38843;SDS011;24596;48.080;8.362;2022-10-01T08:15:44;20.20;;;2.25;;
38843;SDS011;24596;48.080;8.362;2022-10-01T08:18:09;4.32;;;1.50;;
38843;SDS011;24596;48.080;8.362;2022-10-01T08:20:35;10.60;;;1.48;;
38843;SDS011;24596;48.080;8.362;2022-10-01T08:23:04;5.38;;;1.27;;
38843;SDS011;24596;48.080;8.362;2022-10-01T08:25:30;12.63;;;1.67;;
38843;SDS011;24596;48.080;8.362;2022-10-01T08:27:55;3.88;;;1.25;;
38843;SDS011;24596;48.080;8.362;2022-10-01T08:30:21;2.83;;;1.00;;
38843;SDS011;24596;48.080;8.362;2022-10-01T08:32:46;2.97;;;1.25;;
38843;SDS011;24596;48.080;8.362;2022-10-01T08:35:11;2.83;;;1.27;;
38843;SDS011;24596;48.080;8.362;2022-10-01T08:37:36;4.30;;;0.90;;
38843;SDS011;24596;48.080;8.362;2022-10-01T08:40:02;1.92;;;0.98;;
38843;SDS011;24596;48.080;8.362;2022-10-01T08:45:09;1.60;;;0.80;;
38843;SDS011;24596;48.080;8.362;2022-10-01T08:47:40;4.72;;;1.13;;
38843;SDS011;24596;48.080;8.362;2022-10-01T08:50:12;8.40;;;1.70;;
38843;SDS011;24596;48.080;8.362;2022-10-01T08:52:47;4.47;;;1.15;;
38843;SDS011;24596;48.080;8.362;2022-10-01T08:55:16;2.83;;;1.25;;
38843;SDS011;24596;48.080;8.362;2022-10-01T08:58:05;3.00;;;1.05;;
38843;SDS011;24596;48.080;8.362;2022-10-01T09:00:29;6.07;;;1.25;;
38843;SDS011;24596;48.080;8.362;2022-10-01T09:02:57;3.28;;;1.30;;
38843;SDS011;24596;48.080;8.362;2022-10-01T09:05:28;2.95;;;1.23;;
38843;SDS011;24596;48.080;8.362;2022-10-01T09:15:35;2.08;;;0.80;;
38843;SDS011;24596;48.080;8.362;2022-10-01T09:20:37;1.52;;;0.90;;
38843;SDS011;24596;48.080;8.362;2022-10-01T09:25:41;3.15;;;1.33;;
38843;SDS011;24596;48.080;8.362;2022-10-01T09:30:35;3.85;;;1.00;;
38843;SDS011;24596;48.080;8.362;2022-10-01T09:33:02;3.25;;;1.20;;
38843;SDS011;24596;48.080;8.362;2022-10-01T09:37:56;3.15;;;1.40;;
38843;SDS011;24596;48.080;8.362;2022-10-01T09:43:02;3.22;;;1.00;;
38843;SDS011;24596;48.080;8.362;2022-10-01T09:45:30;2.67;;;1.20;;
38843;SDS011;24596;48.080;8.362;2022-10-01T09:47:56;1.98;;;1.00;;
38843;SDS011;24596;48.080;8.362;2022-10-01T09:50:28;4.35;;;1.45;;
38843;SDS011;24596;48.080;8.362;2022-10-01T09:52:54;4.50;;;1.33;;
38843;SDS011;24596;48.080;8.362;2022-10-01T09:55:32;2.10;;;0.90;;
38843;SDS011;24596;48.080;8.362;2022-10-01T10:00:54;2.40;;;0.98;;
38843;SDS011;24596;48.080;8.362;2022-10-01T10:03:24;2.72;;;1.08;;
38843;SDS011;24596;48.080;8.362;2022-10-01T10:05:52;3.88;;;1.02;;
38843;SDS011;24596;48.080;8.362;2022-10-01T10:08:28;2.60;;;0.85;;
38843;SDS011;24596;48.080;8.362;2022-10-01T10:10:58;1.63;;;0.82;;
38843;SDS011;24596;48.080;8.362;2022-10-01T10:13:28;3.20;;;1.50;;
38843;SDS011;24596;48.080;8.362;2022-10-01T10:15:56;1.50;;;0.60;;
38843;SDS011;24596;48.080;8.362;2022-10-01T10:18:28;1.55;;;0.60;;
38843;SDS011;24596;48.080;8.362;2022-10-01T10:20:54;2.20;;;0.90;;
38843;SDS011;24596;48.080;8.362;2022-10-01T10:23:21;1.27;;;0.52;;
38843;SDS011;24596;48.080;8.362;2022-10-01T10:25:56;0.80;;;0.55;;
38843;SDS011;24596;48.080;8.362;2022-10-01T10:28:23;1.92;;;0.82;;
38843;SDS011;24596;48.080;8.362;2022-10-01T10:30:49;6.10;;;0.63;;
38843;SDS011;24596;48.080;8.362;2022-10-01T10:33:16;4.50;;;0.55;;
38843;SDS011;24596;48.080;8.362;2022-10-01T10:35:42;6.00;;;0.75;;
38843;SDS011;24596;48.080;8.362;2022-10-01T10:38:14;0.98;;;0.50;;
38843;SDS011;24596;48.080;8.362;2022-10-01T10:40:42;0.60;;;0.50;;
38843;SDS011;24596;48.080;8.362;2022-10-01T10:43:11;1.20;;;0.70;;
38843;SDS011;24596;48.080;8.362;2022-10-01T10:45:41;1.65;;;0.70;;
38843;SDS011;24596;48.080;8.362;2022-10-01T10:48:10;1.60;;;0.50;;
38843;SDS011;24596;48.080;8.362;2022-10-01T10:50:39;0.93;;;0.60;;
38843;SDS011;24596;48.080;8.362;2022-10-01T10:53:20;0.63;;;0.30;;
38843;SDS011;24596;48.080;8.362;2022-10-01T10:55:59;17.38;;;1.67;;
38843;SDS011;24596;48.080;8.362;2022-10-01T10:58:29;1.63;;;0.50;;
38843;SDS011;24596;48.080;8.362;2022-10-01T11:00:59;2.42;;;0.90;;
38843;SDS011;24596;48.080;8.362;2022-10-01T11:03:26;0.77;;;0.50;;
38843;SDS011;24596;48.080;8.362;2022-10-01T11:05:55;0.40;;;0.40;;
38843;SDS011;24596;48.080;8.362;2022-10-01T11:08:24;0.82;;;0.47;;
38843;SDS011;24596;48.080;8.362;2022-10-01T11:28:41;1.45;;;0.52;;
38843;SDS011;24596;48.080;8.362;2022-10-01T11:34:00;1.50;;;0.60;;
38843;SDS011;24596;48.080;8.362;2022-10-01T11:39:00;1.50;;;0.52;;
38843;SDS011;24596;48.080;8.362;2022-10-01T11:41:28;4.05;;;0.70;;
38843;SDS011;24596;48.080;8.362;2022-10-01T11:44:03;0.80;;;0.50;;
38843;SDS011;24596;48.080;8.362;2022-10-01T11:49:03;1.17;;;0.52;;
38843;SDS011;24596;48.080;8.362;2022-10-01T11:51:40;1.50;;;0.50;;
38843;SDS011;24596;48.080;8.362;2022-10-01T11:54:09;1.55;;;0.40;;
38843;SDS011;24596;48.080;8.362;2022-10-01T11:56:37;0.30;;;0.30;;
38843;SDS011;24596;48.080;8.362;2022-10-01T11:59:29;0.90;;;0.50;;
38843;SDS011;24596;48.080;8.362;2022-10-01T12:02:02;0.25;;;0.20;;
38843;SDS011;24596;48.080;8.362;2022-10-01T12:04:33;0.40;;;0.40;;
38843;SDS011;24596;48.080;8.362;2022-10-01T12:09:30;0.80;;;0.47;;
38843;SDS011;24596;48.080;8.362;2022-10-01T12:12:15;0.63;;;0.52;;
38843;SDS011;24596;48.080;8.362;2022-10-01T12:14:54;1.33;;;0.55;;
38843;SDS011;24596;48.080;8.362;2022-10-01T12:17:28;1.85;;;0.60;;
38843;SDS011;24596;48.080;8.362;2022-10-01T12:19:55;2.42;;;0.50;;
38843;SDS011;24596;48.080;8.362;2022-10-01T12:22:33;2.03;;;0.60;;
38843;SDS011;24596;48.080;8.362;2022-10-01T12:25:00;1.08;;;0.40;;
38843;SDS011;24596;48.080;8.362;2022-10-01T12:30:37;0.73;;;0.35;;
38843;SDS011;24596;48.080;8.362;2022-10-01T12:32:45;0.43;;;0.40;;
38843;SDS011;24596;48.080;8.362;2022-10-01T12:35:18;0.60;;;0.35;;
38843;SDS011;24596;48.080;8.362;2022-10-01T12:37:50;0.43;;;0.30;;
38843;SDS011;24596;48.080;8.362;2022-10-01T12:47:42;0.65;;;0.40;;
38843;SDS011;24596;48.080;8.362;2022-10-01T13:00:21;0.50;;;0.30;;
38843;SDS011;24596;48.080;8.362;2022-10-01T13:10:57;0.95;;;0.55;;
38843;SDS011;24596;48.080;8.362;2022-10-01T13:13:28;0.38;;;0.20;;
38843;SDS011;24596;48.080;8.362;2022-10-01T13:26:21;1.92;;;0.77;;
38843;SDS011;24596;48.080;8.362;2022-10-01T13:31:17;0.65;;;0.40;;
38843;SDS011;24596;48.080;8.362;2022-10-01T13:33:54;0.63;;;0.30;;
38843;SDS011;24596;48.080;8.362;2022-10-01T13:36:27;0.60;;;0.28;;
38843;SDS011;24596;48.080;8.362;2022-10-01T13:38:52;0.30;;;0.20;;
38843;SDS011;24596;48.080;8.362;2022-10-01T13:43:50;0.77;;;0.30;;
38843;SDS011;24596;48.080;8.362;2022-10-01T13:46:24;0.40;;;0.30;;
38843;SDS011;24596;48.080;8.362;2022-10-01T13:48:50;1.35;;;0.30;;
38843;SDS011;24596;48.080;8.362;2022-10-01T13:51:16;1.77;;;0.60;;
38843;SDS011;24596;48.080;8.362;2022-10-01T13:56:07;1.40;;;0.47;;
38843;SDS011;24596;48.080;8.362;2022-10-01T14:01:02;1.13;;;0.40;;
38843;SDS011;24596;48.080;8.362;2022-10-01T14:05:58;0.90;;;0.32;;
38843;SDS011;24596;48.080;8.362;2022-10-01T14:08:26;0.77;;;0.40;;
38843;SDS011;24596;48.080;8.362;2022-10-01T14:10:57;1.00;;;0.47;;
38843;SDS011;24596;48.080;8.362;2022-10-01T14:13:47;2.00;;;0.80;;
38843;SDS011;24596;48.080;8.362;2022-10-01T14:16:34;0.73;;;0.50;;
38843;SDS011;24596;48.080;8.362;2022-10-01T14:19:01;0.45;;;0.38;;
38843;SDS011;24596;48.080;8.362;2022-10-01T14:23:57;1.73;;;0.60;;
38843;SDS011;24596;48.080;8.362;2022-10-01T14:35:04;1.98;;;0.57;;
38843;SDS011;24596;48.080;8.362;2022-10-01T14:37:35;3.60;;;1.38;;
38843;SDS011;24596;48.080;8.362;2022-10-01T14:40:18;8.18;;;3.53;;
38843;SDS011;24596;48.080;8.362;2022-10-01T14:45:15;0.52;;;0.40;;
38843;SDS011;24596;48.080;8.362;2022-10-01T14:47:41;0.80;;;0.40;;
38843;SDS011;24596;48.080;8.362;2022-10-01T14:50:10;0.77;;;0.40;;
38843;SDS011;24596;48.080;8.362;2022-10-01T14:52:35;2.97;;;0.60;;
38843;SDS011;24596;48.080;8.362;2022-10-01T14:55:06;1.35;;;0.47;;
38843;SDS011;24596;48.080;8.362;2022-10-01T15:00:05;0.82;;;0.50;;
38843;SDS011;24596;48.080;8.362;2022-10-01T15:02:33;0.80;;;0.40;;
38843;SDS011;24596;48.080;8.362;2022-10-01T15:05:13;1.77;;;0.65;;
38843;SDS011;24596;48.080;8.362;2022-10-01T15:07:38;1.88;;;0.50;;
38843;SDS011;24596;48.080;8.362;2022-10-01T15:10:04;1.48;;;0.60;;
38843;SDS011;24596;48.080;8.362;2022-10-01T15:12:30;1.38;;;0.50;;
38843;SDS011;24596;48.080;8.362;2022-10-01T15:14:55;1.63;;;0.57;;
38843;SDS011;24596;48.080;8.362;2022-10-01T15:17:22;1.67;;;0.70;;
38843;SDS011;24596;48.080;8.362;2022-10-01T15:19:48;3.67;;;1.23;;
38843;SDS011;24596;48.080;8.362;2022-10-01T15:22:16;2.53;;;0.80;;
38843;SDS011;24596;48.080;8.362;2022-10-01T15:24:44;1.70;;;0.50;;
38843;SDS011;24596;48.080;8.362;2022-10-01T15:27:11;2.97;;;1.10;;
38843;SDS011;24596;48.080;8.362;2022-10-01T15:29:37;3.33;;;0.90;;
38843;SDS011;24596;48.080;8.362;2022-10-01T15:32:04;3.47;;;0.60;;
38843;SDS011;24596;48.080;8.362;2022-10-01T15:34:29;2.17;;;0.70;;
38843;SDS011;24596;48.080;8.362;2022-10-01T15:36:55;7.65;;;3.63;;
38843;SDS011;24596;48.080;8.362;2022-10-01T15:39:30;2.40;;;0.80;;
38843;SDS011;24596;48.080;8.362;2022-10-01T15:41:57;5.00;;;2.42;;
38843;SDS011;24596;48.080;8.362;2022-10-01T15:49:59;4.63;;;0.70;;
38843;SDS011;24596;48.080;8.362;2022-10-01T15:52:24;4.25;;;1.10;;
38843;SDS011;24596;48.080;8.362;2022-10-01T15:55:14;2.70;;;0.50;;
38843;SDS011;24596;48.080;8.362;2022-10-01T15:57:40;3.25;;;0.75;;
38843;SDS011;24596;48.080;8.362;2022-10-01T16:00:15;1.50;;;0.75;;
38843;SDS011;24596;48.080;8.362;2022-10-01T16:02:52;2.88;;;0.90;;
38843;SDS011;24596;48.080;8.362;2022-10-01T16:05:25;0.93;;;0.57;;
38843;SDS011;24596;48.080;8.362;2022-10-01T16:07:51;2.47;;;1.00;;
38843;SDS011;24596;48.080;8.362;2022-10-01T16:12:50;0.93;;;0.55;;
38843;SDS011;24596;48.080;8.362;2022-10-01T16:15:22;3.88;;;0.60;;
38843;SDS011;24596;48.080;8.362;2022-10-01T16:17:52;1.63;;;0.40;;
38843;SDS011;24596;48.080;8.362;2022-10-01T16:22:45;3.22;;;0.63;;
38843;SDS011;24596;48.080;8.362;2022-10-01T16:27:45;0.98;;;0.63;;
38843;SDS011;24596;48.080;8.362;2022-10-01T16:30:20;2.58;;;0.70;;
38843;SDS011;24596;48.080;8.362;2022-10-01T16:32:46;3.67;;;0.70;;
38843;SDS011;24596;48.080;8.362;2022-10-01T16:37:43;1.60;;;0.60;;
38843;SDS011;24596;48.080;8.362;2022-10-01T16:40:09;1.42;;;0.52;;
38843;SDS011;24596;48.080;8.362;2022-10-01T16:42:34;0.93;;;0.55;;
38843;SDS011;24596;48.080;8.362;2022-10-01T16:45:04;2.38;;;0.70;;
38843;SDS011;24596;48.080;8.362;2022-10-01T16:47:29;3.50;;;0.90;;
38843;SDS011;24596;48.080;8.362;2022-10-01T16:49:55;1.63;;;0.65;;
38843;SDS011;24596;48.080;8.362;2022-10-01T16:52:20;2.78;;;0.70;;
38843;SDS011;24596;48.080;8.362;2022-10-01T16:54:45;1.30;;;0.40;;
38843;SDS011;24596;48.080;8.362;2022-10-01T16:57:11;0.82;;;0.38;;
38843;SDS011;24596;48.080;8.362;2022-10-01T16:59:37;4.25;;;1.10;;
38843;SDS011;24596;48.080;8.362;2022-10-01T17:02:02;4.50;;;0.70;;
38843;SDS011;24596;48.080;8.362;2022-10-01T17:04:27;2.17;;;0.65;;
38843;SDS011;24596;48.080;8.362;2022-10-01T17:06:55;2.58;;;0.65;;
38843;SDS011;24596;48.080;8.362;2022-10-01T17:09:20;3.83;;;0.90;;
38843;SDS011;24596;48.080;8.362;2022-10-01T17:11:45;2.10;;;0.52;;
38843;SDS011;24596;48.080;8.362;2022-10-01T17:14:11;2.90;;;1.00;;
38843;SDS011;24596;48.080;8.362;2022-10-01T17:16:39;3.47;;;1.00;;
38843;SDS011;24596;48.080;8.362;2022-10-01T17:19:04;3.85;;;1.13;;
38843;SDS011;24596;48.080;8.362;2022-10-01T17:21:29;2.03;;;0.73;;
38843;SDS011;24596;48.080;8.362;2022-10-01T17:23:55;6.45;;;2.13;;
38843;SDS011;24596;48.080;8.362;2022-10-01T17:26:20;3.60;;;0.65;;
38843;SDS011;24596;48.080;8.362;2022-10-01T17:28:45;1.48;;;0.73;;
38843;SDS011;24596;48.080;8.362;2022-10-01T17:31:11;7.85;;;2.30;;
38843;SDS011;24596;48.080;8.362;2022-10-01T17:33:37;6.40;;;2.15;;
38843;SDS011;24596;48.080;8.362;2022-10-01T17:36:06;2.55;;;0.60;;
38843;SDS011;24596;48.080;8.362;2022-10-01T17:38:32;2.00;;;0.60;;
38843;SDS011;24596;48.080;8.362;2022-10-01T17:41:00;4.03;;;1.10;;